Time;durP1;ratioP1;P1;durP2;ratioP2;P2;SDS_P1;SDS_P2;PMS_P1;PMS_P2;Temp;Humidity;BMP_temperature;BMP_pressure;BME280_temperature;BME280_humidity;BME280_pressure;Samples;Min_cycle;Max_cycle;Signal;HPM_P1;HPM_P2
2022/12/16 00:02:22;;;;;;;60.47;31.20;;;;;;;;;;4951893;28;97468;-86
2022/12/16 00:04:49;;;;;;;50.80;29.60;;;;;;;;;;4968341;28;95716;-86
2022/12/16 00:07:15;;;;;;;67.00;30.38;;;;;;;;;;4964540;28;94048;-86
2022/12/16 00:09:42;;;;;;;60.70;31.00;;;;;;;;;;4954276;28;94713;-86
2022/12/16 00:12:08;;;;;;;55.63;29.10;;;;;;;;;;4953131;28;94093;-86
2022/12/16 00:14:34;;;;;;;66.90;31.67;;;;;;;;;;4952087;28;97101;-87
2022/12/16 00:17:01;;;;;;;55.17;29.92;;;;;;;;;;4953324;28;94270;-86
2022/12/16 00:19:27;;;;;;;54.15;31.25;;;;;;;;;;4953638;28;92570;-86
2022/12/16 00:21:53;;;;;;;57.10;30.20;;;;;;;;;;4953294;28;96381;-86
2022/12/16 00:24:20;;;;;;;55.78;29.60;;;;;;;;;;4951897;28;97449;-86
2022/12/16 00:26:46;;;;;;;51.55;29.92;;;;;;;;;;4952445;28;94900;-86
2022/12/16 00:29:13;;;;;;;54.28;29.75;;;;;;;;;;4955298;28;97039;-86
2022/12/16 00:31:39;;;;;;;58.65;31.60;;;;;;;;;;4967668;28;92659;-86
2022/12/16 00:34:06;;;;;;;52.85;29.90;;;;;;;;;;4954187;28;97594;-85
2022/12/16 00:36:33;;;;;;;63.38;31.60;;;;;;;;;;4948219;28;93184;-86
2022/12/16 00:38:59;;;;;;;55.28;31.58;;;;;;;;;;4938299;28;92515;-86
2022/12/16 00:41:26;;;;;;;57.78;31.98;;;;;;;;;;4959372;28;95527;-86
2022/12/16 00:43:53;;;;;;;65.40;32.92;;;;;;;;;;4953834;28;94215;-86
2022/12/16 00:46:20;;;;;;;55.42;32.78;;;;;;;;;;4953881;28;94249;-86
2022/12/16 00:48:46;;;;;;;62.78;33.38;;;;;;;;;;4951871;28;93761;-86
2022/12/16 00:51:12;;;;;;;63.17;33.22;;;;;;;;;;4939691;28;96785;-85
2022/12/16 00:53:39;;;;;;;63.88;33.25;;;;;;;;;;4952445;28;98406;-86
2022/12/16 00:56:09;;;;;;;59.92;32.85;;;;;;;;;;4951818;28;97976;-86
2022/12/16 00:58:36;;;;;;;56.03;31.92;;;;;;;;;;4968901;28;94721;-86
2022/12/16 01:01:02;;;;;;;63.30;31.98;;;;;;;;;;4953107;28;94361;-86
2022/12/16 01:03:29;;;;;;;59.67;31.67;;;;;;;;;;4952680;28;94553;-85
2022/12/16 01:05:55;;;;;;;69.10;33.67;;;;;;;;;;4948020;28;92699;-86
2022/12/16 01:08:22;;;;;;;56.92;32.35;;;;;;;;;;4958241;28;97364;-85
2022/12/16 01:10:52;;;;;;;70.22;32.90;;;;;;;;;;4948520;28;97432;-86
2022/12/16 01:13:21;;;;;;;59.40;32.97;;;;;;;;;;4954059;28;92645;-86
2022/12/16 01:15:47;;;;;;;58.08;32.70;;;;;;;;;;4952901;28;100239;-86
2022/12/16 01:18:14;;;;;;;56.72;31.83;;;;;;;;;;4952737;28;92635;-86
2022/12/16 01:20:40;;;;;;;61.30;31.80;;;;;;;;;;4967800;28;94171;-86
2022/12/16 01:23:07;;;;;;;64.47;32.90;;;;;;;;;;4949224;28;94093;-86
2022/12/16 01:25:33;;;;;;;61.80;34.30;;;;;;;;;;4948961;28;93429;-86
2022/12/16 01:28:00;;;;;;;59.55;32.80;;;;;;;;;;4951804;28;94242;-86
2022/12/16 01:30:26;;;;;;;59.42;32.40;;;;;;;;;;4951703;28;95619;-86
2022/12/16 01:32:52;;;;;;;58.65;31.50;;;;;;;;;;4955858;28;93923;-86
2022/12/16 01:35:19;;;;;;;56.15;31.88;;;;;;;;;;4951865;28;96998;-86
2022/12/16 01:38:05;;;;;;;60.00;32.60;;;;;;;;;;4950549;28;92916;-86
2022/12/16 01:40:31;;;;;;;57.13;32.03;;;;;;;;;;4950249;28;97061;-86
2022/12/16 01:42:58;;;;;;;62.95;32.65;;;;;;;;;;4955931;28;94567;-86
2022/12/16 01:45:34;;;;;;;62.25;32.33;;;;;;;;;;4952066;28;93349;-86
2022/12/16 01:48:13;;;;;;;59.78;32.33;;;;;;;;;;4953778;28;96985;-86
2022/12/16 01:50:40;;;;;;;53.00;30.30;;;;;;;;;;4942585;28;97636;-86
2022/12/16 01:53:07;;;;;;;64.53;32.78;;;;;;;;;;4949449;28;92870;-86
2022/12/16 01:55:36;;;;;;;62.88;32.17;;;;;;;;;;4957416;28;94589;-86
2022/12/16 01:58:11;;;;;;;64.18;32.83;;;;;;;;;;4953740;28;92209;-86
2022/12/16 02:00:37;;;;;;;61.90;33.60;;;;;;;;;;4955830;28;93482;-86
2022/12/16 02:03:04;;;;;;;59.45;32.92;;;;;;;;;;4954184;28;97452;-86
2022/12/16 02:05:32;;;;;;;58.45;31.25;;;;;;;;;;4969782;28;95321;-86
2022/12/16 02:08:01;;;;;;;71.38;34.63;;;;;;;;;;4954737;28;96909;-86
2022/12/16 02:10:48;;;;;;;61.90;33.78;;;;;;;;;;4953364;28;96821;-86
2022/12/16 02:13:15;;;;;;;64.72;33.83;;;;;;;;;;4934213;28;92504;-85
2022/12/16 02:15:50;;;;;;;64.68;34.42;;;;;;;;;;4957600;28;92761;-85
2022/12/16 02:18:33;;;;;;;58.72;32.88;;;;;;;;;;4958496;28;94874;-86
2022/12/16 02:21:15;;;;;;;70.43;32.95;;;;;;;;;;4953004;28;94857;-86
2022/12/16 02:23:42;;;;;;;62.03;31.95;;;;;;;;;;4969516;28;94375;-86
2022/12/16 02:26:08;;;;;;;60.13;31.95;;;;;;;;;;4954820;28;93653;-86
2022/12/16 02:28:54;;;;;;;64.10;32.88;;;;;;;;;;4952188;28;97046;-86
2022/12/16 02:31:23;;;;;;;58.35;31.75;;;;;;;;;;4941632;28;96858;-86
2022/12/16 02:34:07;;;;;;;57.08;31.30;;;;;;;;;;4968082;28;93137;-86
2022/12/16 02:36:52;;;;;;;57.83;33.15;;;;;;;;;;4953645;28;96337;-86
2022/12/16 02:39:21;;;;;;;66.78;32.72;;;;;;;;;;4952928;28;93871;-85
2022/12/16 02:41:55;;;;;;;62.00;31.10;;;;;;;;;;4953082;28;92586;-86
2022/12/16 02:44:27;;;;;;;65.18;32.30;;;;;;;;;;4963684;28;94356;-86
2022/12/16 02:46:54;;;;;;;63.33;32.05;;;;;;;;;;4969579;28;92529;-86
2022/12/16 02:49:21;;;;;;;59.28;31.52;;;;;;;;;;4953940;28;96104;-85
2022/12/16 02:51:47;;;;;;;62.55;31.45;;;;;;;;;;4951180;28;94426;-86
2022/12/16 02:54:15;;;;;;;57.05;30.20;;;;;;;;;;4946631;28;93462;-86
2022/12/16 02:57:00;;;;;;;58.45;29.75;;;;;;;;;;4952050;28;97302;-86
2022/12/16 03:00:00;;;;;;;57.03;31.10;;;;;;;;;;4947124;28;97755;-86
2022/12/16 03:02:26;;;;;;;59.10;31.58;;;;;;;;;;4925134;28;94444;-85
2022/12/16 03:04:56;;;;;;;56.00;31.83;;;;;;;;;;4955702;28;96778;-86
2022/12/16 03:07:25;;;;;;;58.08;32.53;;;;;;;;;;4949601;28;94120;-85
2022/12/16 03:09:52;;;;;;;59.88;32.58;;;;;;;;;;4968936;28;94768;-86
2022/12/16 03:12:20;;;;;;;64.97;31.73;;;;;;;;;;4954146;28;93761;-85
2022/12/16 03:14:48;;;;;;;77.38;32.35;;;;;;;;;;4953282;28;92177;-85
2022/12/16 03:17:17;;;;;;;58.50;31.85;;;;;;;;;;4954303;28;93607;-86
2022/12/16 03:19:46;;;;;;;55.60;31.23;;;;;;;;;;4952028;28;97252;-86
2022/12/16 03:22:33;;;;;;;57.67;29.98;;;;;;;;;;4952541;28;95306;-86
2022/12/16 03:24:59;;;;;;;55.05;29.85;;;;;;;;;;4945973;28;99617;-86
2022/12/16 03:27:25;;;;;;;56.13;30.10;;;;;;;;;;4952582;28;92794;-86
2022/12/16 03:30:02;;;;;;;56.80;30.67;;;;;;;;;;4953184;28;94365;-85
2022/12/16 03:32:38;;;;;;;56.55;27.55;;;;;;;;;;4951242;28;97716;-86
2022/12/16 03:35:12;;;;;;;49.38;27.85;;;;;;;;;;4952302;28;93249;-85
2022/12/16 03:37:40;;;;;;;62.20;29.63;;;;;;;;;;4953000;28;96619;-85
2022/12/16 03:40:07;;;;;;;57.47;29.50;;;;;;;;;;4953321;28;95642;-86
2022/12/16 03:42:35;;;;;;;52.95;27.73;;;;;;;;;;4952003;28;94262;-85
2022/12/16 03:45:03;;;;;;;50.58;29.15;;;;;;;;;;4953127;28;94202;-86
2022/12/16 03:47:29;;;;;;;58.03;27.98;;;;;;;;;;4954446;28;100047;-85
2022/12/16 03:49:56;;;;;;;58.28;29.48;;;;;;;;;;4952573;28;98543;-86
2022/12/16 03:52:22;;;;;;;54.80;28.73;;;;;;;;;;4952478;28;97443;-86
2022/12/16 03:54:48;;;;;;;54.38;27.35;;;;;;;;;;4951026;28;92502;-85
2022/12/16 03:57:15;;;;;;;49.15;26.58;;;;;;;;;;4952827;28;96517;-85
2022/12/16 03:59:41;;;;;;;57.85;28.65;;;;;;;;;;4952610;28;99166;-85
2022/12/16 04:02:08;;;;;;;107.25;33.55;;;;;;;;;;4952590;28;94228;-86
2022/12/16 04:04:35;;;;;;;55.75;28.52;;;;;;;;;;4949842;28;97563;-86
2022/12/16 04:07:19;;;;;;;53.65;27.85;;;;;;;;;;4947342;28;94138;-86
2022/12/16 04:09:49;;;;;;;47.55;27.15;;;;;;;;;;4971673;28;94631;-85
2022/12/16 04:26:06;;;;;;;55.78;28.67;;;;;;;;;;4954154;28;93824;-86
2022/12/16 04:28:32;;;;;;;54.88;28.92;;;;;;;;;;4953718;28;94399;-85
2022/12/16 04:30:58;;;;;;;53.75;28.45;;;;;;;;;;4968990;28;91782;-86
